createdAt,value
2017-06-01T00:00:15.483Z,9.38
2017-06-01T00:02:44.105Z,13.44
2017-06-01T00:05:12.635Z,11.84
2017-06-01T00:07:41.155Z,11.16
2017-06-01T00:10:09.665Z,8.58
2017-06-01T00:12:38.198Z,12.16
2017-06-01T00:15:06.773Z,5.74
2017-06-01T00:17:35.800Z,9.36
2017-06-01T00:20:04.350Z,9.64
2017-06-01T00:22:32.817Z,9.84
2017-06-01T00:25:01.380Z,11.22
2017-06-01T00:27:29.795Z,9.46
2017-06-01T00:29:58.281Z,11.58
2017-06-01T00:32:26.020Z,6.88
2017-06-01T00:34:54.502Z,9.14
2017-06-01T00:37:22.952Z,9.82
2017-06-01T00:39:51.414Z,6.32
2017-06-01T00:42:19.123Z,9.92
2017-06-01T00:47:25.923Z,8.04
2017-06-01T00:49:54.643Z,6.98
2017-06-01T00:52:23.176Z,10.36
2017-06-01T00:54:51.739Z,9.48
2017-06-01T00:57:20.184Z,7.56
2017-06-01T00:59:48.683Z,7.62
2017-06-01T01:02:17.143Z,6.30
2017-06-01T01:04:45.591Z,6.50
2017-06-01T01:07:14.049Z,6.56
2017-06-01T01:09:42.519Z,7.64
2017-06-01T01:12:11.039Z,6.50
2017-06-01T01:14:39.529Z,12.32
2017-06-01T01:17:08.126Z,7.04
2017-06-01T01:19:36.594Z,6.90
2017-06-01T01:22:05.076Z,7.38
2017-06-01T01:24:33.628Z,5.06
2017-06-01T01:27:02.084Z,10.02
2017-06-01T01:29:30.538Z,8.24
2017-06-01T01:31:59.023Z,9.26
2017-06-01T01:34:27.525Z,5.90
2017-06-01T01:36:56.002Z,5.00
2017-06-01T01:39:24.500Z,5.72
2017-06-01T01:41:52.947Z,5.40
2017-06-01T01:44:21.372Z,6.38
2017-06-01T01:46:49.840Z,6.98
2017-06-01T01:49:18.248Z,7.00
2017-06-01T01:51:46.678Z,6.74
2017-06-01T01:54:14.423Z,6.68
2017-06-01T01:56:42.830Z,8.06
2017-06-01T01:59:18.819Z,5.56
2017-06-01T02:02:07.097Z,7.08
2017-06-01T02:04:35.796Z,5.74
2017-06-01T02:07:04.265Z,6.58
2017-06-01T02:09:31.918Z,6.00
2017-06-01T02:11:59.626Z,6.04
2017-06-01T02:14:27.347Z,8.88
2017-06-01T02:16:55.827Z,5.02
2017-06-01T02:19:24.333Z,6.42
2017-06-01T02:21:52.848Z,7.40
2017-06-01T02:24:21.447Z,9.36
2017-06-01T02:26:49.965Z,10.64
2017-06-01T02:29:18.440Z,9.28
2017-06-01T02:31:46.921Z,8.82
2017-06-01T02:34:15.412Z,8.42
2017-06-01T02:36:43.870Z,9.98
2017-06-01T02:39:12.328Z,11.94
2017-06-01T02:41:40.005Z,6.64
2017-06-01T02:44:08.458Z,8.92
2017-06-01T02:46:36.949Z,8.58
2017-06-01T02:49:05.480Z,5.90
2017-06-01T02:51:34.017Z,6.48
2017-06-01T02:54:01.741Z,7.62
2017-06-01T02:56:30.212Z,7.08
2017-06-01T02:58:58.714Z,7.62
2017-06-01T03:01:27.300Z,8.28
2017-06-01T03:03:55.863Z,7.56
2017-06-01T03:06:24.396Z,8.04
2017-06-01T03:08:52.150Z,14.16
2017-06-01T03:11:21.817Z,9.90
2017-06-01T03:13:50.619Z,10.54
2017-06-01T03:16:19.172Z,15.04
2017-06-01T03:18:47.694Z,5.50
2017-06-01T03:21:16.386Z,10.60
2017-06-01T03:23:44.878Z,12.20
2017-06-01T03:26:13.377Z,5.96
2017-06-01T03:28:41.853Z,6.48
2017-06-01T03:31:10.369Z,9.48
2017-06-01T03:33:38.886Z,9.56
2017-06-01T03:36:07.363Z,8.22
2017-06-01T03:38:35.830Z,4.80
2017-06-01T03:41:04.366Z,6.12
2017-06-01T03:43:32.134Z,7.92
2017-06-01T03:46:00.560Z,8.46
2017-06-01T03:48:29.075Z,8.86
2017-06-01T03:50:57.514Z,6.28
2017-06-01T03:53:25.889Z,10.00
2017-06-01T03:55:54.308Z,9.42
2017-06-01T03:58:22.719Z,10.64
2017-06-01T04:00:51.091Z,9.78
2017-06-01T04:03:19.459Z,8.68
2017-06-01T04:05:47.835Z,7.66
2017-06-01T04:08:16.198Z,6.22
2017-06-01T04:10:44.541Z,6.20
2017-06-01T04:13:12.904Z,6.44
2017-06-01T04:15:41.310Z,7.72
2017-06-01T04:18:09.666Z,9.08
2017-06-01T04:20:38.075Z,8.48
2017-06-01T04:23:06.479Z,5.22
2017-06-01T04:25:34.855Z,9.60
2017-06-01T04:28:03.260Z,7.10
2017-06-01T04:30:31.070Z,5.56
2017-06-01T04:32:59.466Z,13.02
2017-06-01T04:35:27.948Z,7.40
2017-06-01T04:37:56.342Z,8.90
2017-06-01T04:40:24.757Z,8.06
2017-06-01T04:42:53.165Z,8.50
2017-06-01T04:45:21.618Z,9.66
2017-06-01T04:47:50.036Z,6.56
2017-06-01T04:50:18.401Z,8.00
2017-06-01T04:52:46.821Z,14.50
2017-06-01T04:55:15.212Z,8.18
2017-06-01T04:57:43.560Z,14.24
2017-06-01T05:00:11.943Z,9.94
2017-06-01T05:02:40.308Z,10.10
2017-06-01T05:05:08.674Z,8.02
2017-06-01T05:07:37.020Z,7.22
2017-06-01T05:10:05.400Z,11.88
2017-06-01T05:12:33.750Z,10.90
2017-06-01T05:15:02.121Z,8.84
2017-06-01T05:17:30.471Z,9.30
2017-06-01T05:19:58.818Z,7.38
2017-06-01T05:22:27.194Z,8.26
2017-06-01T05:24:56.582Z,12.38
2017-06-01T05:27:24.946Z,10.78
2017-06-01T05:29:53.329Z,13.26
2017-06-01T05:32:21.689Z,9.02
2017-06-01T05:34:50.084Z,9.06
2017-06-01T05:37:18.438Z,11.44
2017-06-01T05:39:46.068Z,11.94
2017-06-01T05:42:14.423Z,12.96
2017-06-01T05:44:42.795Z,10.46
2017-06-01T05:47:11.159Z,11.00
2017-06-01T05:49:39.554Z,10.08
2017-06-01T05:52:07.930Z,13.36
2017-06-01T05:54:36.467Z,10.96
2017-06-01T05:57:04.827Z,10.18
2017-06-01T05:59:33.203Z,10.04
2017-06-01T06:02:01.543Z,11.96
2017-06-01T06:04:30.002Z,9.90
2017-06-01T06:06:59.055Z,7.06
2017-06-01T06:09:27.485Z,9.04
2017-06-01T06:11:56.725Z,9.84
2017-06-01T06:27:25.187Z,12.92
2017-06-01T06:29:53.680Z,7.42
2017-06-01T06:32:22.584Z,8.78
2017-06-01T06:34:51.005Z,10.12
2017-06-01T06:37:19.459Z,14.30
2017-06-01T06:39:47.883Z,12.50
2017-06-01T06:42:16.283Z,9.00
2017-06-01T06:44:44.651Z,10.44
2017-06-01T06:47:13.039Z,8.78
2017-06-01T06:49:41.496Z,10.04
2017-06-01T06:52:09.894Z,9.74
2017-06-01T06:54:38.301Z,10.38
2017-06-01T06:57:06.702Z,9.10
2017-06-01T06:59:35.134Z,11.04
2017-06-01T07:02:03.526Z,7.98
2017-06-01T07:04:32.206Z,11.32
2017-06-01T07:07:00.625Z,11.76
2017-06-01T07:09:29.043Z,10.92
2017-06-01T07:11:57.481Z,11.42
2017-06-01T07:14:25.924Z,11.42
2017-06-01T07:16:54.356Z,8.32
2017-06-01T07:19:22.915Z,8.46
2017-06-01T07:21:51.349Z,11.48
2017-06-01T07:24:19.736Z,9.34
2017-06-01T07:26:48.222Z,9.06
2017-06-01T07:29:16.867Z,12.74
2017-06-01T07:31:45.264Z,8.16
2017-06-01T07:34:13.707Z,11.92
2017-06-01T07:36:42.095Z,9.60
2017-06-01T07:39:10.472Z,12.60
2017-06-01T07:41:38.875Z,7.14
2017-06-01T07:44:07.299Z,12.20
2017-06-01T07:46:35.711Z,8.32
2017-06-01T07:49:04.137Z,8.18
2017-06-01T07:51:32.571Z,8.94
2017-06-01T07:54:01.231Z,10.02
2017-06-01T07:56:29.607Z,10.78
2017-06-01T07:58:58.055Z,9.40
2017-06-01T08:01:25.697Z,12.90
2017-06-01T08:03:54.084Z,7.56
2017-06-01T08:06:22.540Z,10.08
2017-06-01T08:08:50.935Z,9.26
2017-06-01T08:11:19.520Z,12.40
2017-06-01T08:13:47.886Z,11.48
2017-06-01T08:16:16.246Z,9.22
2017-06-01T08:18:44.651Z,13.06
2017-06-01T08:21:13.073Z,10.50
2017-06-01T08:23:41.447Z,10.38
2017-06-01T08:26:09.813Z,10.98
2017-06-01T08:28:38.186Z,13.98
2017-06-01T08:31:07.399Z,10.00
2017-06-01T08:33:35.771Z,11.96
2017-06-01T08:36:04.177Z,10.04
2017-06-01T08:38:32.550Z,10.72
2017-06-01T08:41:00.907Z,10.30
2017-06-01T08:43:28.499Z,13.42
2017-06-01T08:45:56.862Z,13.32
2017-06-01T08:48:25.243Z,10.96
2017-06-01T08:50:53.688Z,12.30
2017-06-01T08:53:22.122Z,15.86
2017-06-01T08:55:59.150Z,14.98
2017-06-01T08:58:27.584Z,10.38
2017-06-01T09:00:56.059Z,9.46
2017-06-01T09:03:23.771Z,9.62
2017-06-01T09:05:53.138Z,11.58
2017-06-01T09:08:21.582Z,14.12
2017-06-01T09:10:50.071Z,10.26
2017-06-01T09:13:18.563Z,11.22
2017-06-01T09:15:47.032Z,11.82
2017-06-01T09:18:15.464Z,14.26
2017-06-01T09:20:43.873Z,9.72
2017-06-01T09:23:18.346Z,8.46
2017-06-01T09:38:46.847Z,12.60
2017-06-01T09:41:16.334Z,14.10
2017-06-01T09:43:47.626Z,11.74
2017-06-01T09:46:16.101Z,14.82
2017-06-01T09:48:44.556Z,9.54
2017-06-01T09:51:12.990Z,11.56
2017-06-01T09:53:41.416Z,9.54
2017-06-01T09:56:09.884Z,11.94
2017-06-01T09:58:38.337Z,12.96
2017-06-01T10:01:06.869Z,11.28
2017-06-01T10:03:35.343Z,8.06
2017-06-01T10:06:03.842Z,10.62
2017-06-01T10:08:32.280Z,7.94
2017-06-01T10:11:00.713Z,11.16
2017-06-01T10:13:29.173Z,9.14
2017-06-01T10:15:57.602Z,9.42
2017-06-01T10:18:28.688Z,8.50
2017-06-01T10:20:57.151Z,9.34
2017-06-01T10:23:25.607Z,8.66
2017-06-01T10:25:54.068Z,11.90
2017-06-01T10:28:22.520Z,10.62
2017-06-01T10:30:50.920Z,14.12
2017-06-01T10:33:19.395Z,11.18
2017-06-01T10:35:47.964Z,10.18
2017-06-01T10:38:16.439Z,10.18
2017-06-01T10:40:44.914Z,14.02
2017-06-01T10:43:13.489Z,8.22
2017-06-01T10:45:41.953Z,9.94
2017-06-01T10:48:10.405Z,11.98
2017-06-01T10:50:38.841Z,12.46
2017-06-01T10:53:07.348Z,11.98
2017-06-01T10:55:36.831Z,10.64
2017-06-01T10:58:05.272Z,10.94
2017-06-01T11:00:33.733Z,12.40
2017-06-01T11:03:02.202Z,12.04
2017-06-01T11:05:30.597Z,15.78
2017-06-01T11:07:59.111Z,14.04
2017-06-01T11:10:27.584Z,16.52
2017-06-01T11:12:55.987Z,10.70
2017-06-01T11:15:24.399Z,13.40
2017-06-01T11:17:52.864Z,14.22
2017-06-01T11:20:21.285Z,10.48
2017-06-01T11:22:49.683Z,13.60
2017-06-01T11:25:18.115Z,11.72
2017-06-01T11:27:46.618Z,11.86
2017-06-01T11:30:15.004Z,12.34
2017-06-01T11:32:43.432Z,13.50
2017-06-01T11:35:11.848Z,11.74
2017-06-01T11:37:40.237Z,10.02
2017-06-01T11:40:08.662Z,11.10
2017-06-01T11:42:37.088Z,15.34
2017-06-01T11:45:05.660Z,9.92
2017-06-01T11:47:34.101Z,14.10
2017-06-01T11:50:02.554Z,13.64
2017-06-01T11:52:30.933Z,11.20
2017-06-01T11:54:59.351Z,9.92
2017-06-01T11:57:27.790Z,13.46
2017-06-01T11:59:56.183Z,15.46
2017-06-01T12:02:24.799Z,15.06
2017-06-01T12:04:53.183Z,15.52
2017-06-01T12:07:21.598Z,15.54
2017-06-01T12:09:49.988Z,11.62
2017-06-01T12:12:18.347Z,16.52
2017-06-01T12:14:46.762Z,11.42
2017-06-01T12:17:15.169Z,9.64
2017-06-01T12:19:43.574Z,13.56
2017-06-01T12:22:11.962Z,14.16
2017-06-01T12:24:40.411Z,15.96
2017-06-01T12:27:08.812Z,12.14
2017-06-01T12:29:37.434Z,12.40
2017-06-01T12:32:05.775Z,11.78
2017-06-01T12:34:34.155Z,11.16
2017-06-01T12:37:02.504Z,11.22
2017-06-01T12:39:30.842Z,9.28
2017-06-01T12:41:59.363Z,10.56
2017-06-01T12:44:27.737Z,13.38
2017-06-01T12:46:56.960Z,11.00
2017-06-01T12:49:25.387Z,11.68
2017-06-01T12:51:53.817Z,15.76
2017-06-01T12:54:22.210Z,12.28
2017-06-01T12:56:50.656Z,15.02
2017-06-01T12:59:19.057Z,14.78
2017-06-01T13:01:47.477Z,12.08
2017-06-01T13:04:15.907Z,11.20
2017-06-01T13:06:44.291Z,13.00
2017-06-01T13:09:12.710Z,14.62
2017-06-01T13:11:41.123Z,12.02
2017-06-01T13:14:09.584Z,16.70
2017-06-01T13:16:37.999Z,12.42
2017-06-01T13:19:05.586Z,13.76
2017-06-01T13:21:33.947Z,9.94
2017-06-01T13:24:02.520Z,13.36
2017-06-01T13:26:30.898Z,11.70
2017-06-01T13:28:59.291Z,11.90
2017-06-01T13:31:27.648Z,10.88
2017-06-01T13:33:57.775Z,16.82
2017-06-01T13:36:28.238Z,13.66
2017-06-01T13:38:56.762Z,17.58
2017-06-01T13:41:33.619Z,12.88
2017-06-01T13:44:08.118Z,15.60
2017-06-01T13:46:36.573Z,13.76
2017-06-01T13:49:04.967Z,12.94
2017-06-01T13:51:33.338Z,15.12
2017-06-01T13:54:01.711Z,14.42
2017-06-01T13:56:30.180Z,22.42
2017-06-01T13:58:58.620Z,14.10
2017-06-01T14:01:26.986Z,14.70
2017-06-01T14:03:55.432Z,17.86
2017-06-01T14:06:23.780Z,12.06
2017-06-01T14:08:52.154Z,17.34
2017-06-01T14:11:20.533Z,14.72
2017-06-01T14:13:48.879Z,16.58
2017-06-01T14:16:17.223Z,14.30
2017-06-01T14:18:45.592Z,16.88
2017-06-01T14:21:13.967Z,12.62
2017-06-01T14:23:41.597Z,13.82
2017-06-01T14:26:10.035Z,13.14
2017-06-01T14:28:38.410Z,13.40
2017-06-01T14:31:06.791Z,21.80
2017-06-01T14:33:35.147Z,14.28
2017-06-01T14:36:03.624Z,11.80
2017-06-01T14:38:31.324Z,16.04
2017-06-01T14:40:59.698Z,14.48
2017-06-01T14:43:28.084Z,17.28
2017-06-01T14:45:56.459Z,15.08
2017-06-01T14:48:24.826Z,12.88
2017-06-01T14:50:53.278Z,15.24
2017-06-01T14:53:21.650Z,19.40
2017-06-01T14:55:50.088Z,12.10
2017-06-01T14:58:18.405Z,13.10
2017-06-01T15:00:46.779Z,13.62
2017-06-01T15:03:15.191Z,11.40
2017-06-01T15:05:43.564Z,14.62
2017-06-01T15:08:11.926Z,15.46
2017-06-01T15:10:39.587Z,15.74
2017-06-01T15:13:07.975Z,17.12
2017-06-01T15:15:36.333Z,14.22
2017-06-01T15:18:04.727Z,22.30
2017-06-01T15:20:33.074Z,15.06
2017-06-01T15:23:01.415Z,14.14
2017-06-01T15:25:29.791Z,13.78
2017-06-01T15:27:58.229Z,14.32
2017-06-01T15:30:26.619Z,17.90
2017-06-01T15:32:55.010Z,15.48
2017-06-01T15:35:23.365Z,12.00
2017-06-01T15:37:51.740Z,17.26
2017-06-01T15:40:20.124Z,20.04
2017-06-01T15:42:48.487Z,26.58
2017-06-01T15:45:16.108Z,23.10
2017-06-01T15:47:44.469Z,16.60
2017-06-01T15:50:12.833Z,15.68
2017-06-01T15:52:41.222Z,20.28
2017-06-01T15:55:09.595Z,13.64
2017-06-01T15:57:37.963Z,16.12
2017-06-01T16:00:06.346Z,15.46
2017-06-01T16:02:34.699Z,18.78
2017-06-01T16:05:03.086Z,13.46
2017-06-01T16:07:31.465Z,14.62
2017-06-01T16:09:59.863Z,11.72
2017-06-01T16:12:28.231Z,15.56
2017-06-01T16:14:56.652Z,16.10
2017-06-01T16:17:25.092Z,12.84
2017-06-01T16:19:53.545Z,13.50
2017-06-01T16:22:21.994Z,14.82
2017-06-01T16:24:50.423Z,11.48
2017-06-01T16:27:18.794Z,15.48
2017-06-01T16:29:47.219Z,14.72
2017-06-01T16:32:15.599Z,11.58
2017-06-01T16:34:44.022Z,12.38
2017-06-01T16:37:12.422Z,13.24
2017-06-01T16:39:40.795Z,15.16
2017-06-01T16:42:09.228Z,12.64
2017-06-01T16:44:37.727Z,12.76
2017-06-01T16:47:06.146Z,12.18
2017-06-01T16:49:34.529Z,9.34
2017-06-01T16:52:02.942Z,16.18
2017-06-01T16:54:31.384Z,13.42
2017-06-01T16:56:59.784Z,12.30
2017-06-01T16:59:28.179Z,13.54
2017-06-01T17:01:56.552Z,12.48
2017-06-01T17:04:24.962Z,15.36
2017-06-01T17:06:53.380Z,11.60
2017-06-01T17:09:21.873Z,11.28
2017-06-01T17:11:50.373Z,15.10
2017-06-01T17:14:18.769Z,18.06
2017-06-01T17:16:47.221Z,11.98
2017-06-01T17:19:15.608Z,19.84
2017-06-01T17:21:44.034Z,10.98
2017-06-01T17:24:12.488Z,12.60
2017-06-01T17:26:40.878Z,10.10
2017-06-01T17:29:09.344Z,14.82
2017-06-01T17:31:37.782Z,16.22
2017-06-01T17:34:06.303Z,10.40
2017-06-01T17:36:34.760Z,11.60
2017-06-01T17:39:03.187Z,15.04
2017-06-01T17:41:31.631Z,13.66
2017-06-01T17:44:00.123Z,10.68
2017-06-01T17:46:28.588Z,11.64
2017-06-01T17:48:57.091Z,9.86
2017-06-01T17:51:25.484Z,14.30
2017-06-01T17:53:53.891Z,12.22
2017-06-01T17:56:22.311Z,17.04
2017-06-01T17:58:50.809Z,12.04
2017-06-01T18:01:18.618Z,13.68
2017-06-01T18:03:47.045Z,11.62
2017-06-01T18:06:15.456Z,12.64
2017-06-01T18:08:43.961Z,8.72
2017-06-01T18:11:12.412Z,9.60
2017-06-01T18:13:40.896Z,11.12
2017-06-01T18:16:09.394Z,11.84
2017-06-01T18:18:37.829Z,15.76
2017-06-01T18:21:06.325Z,10.58
2017-06-01T18:23:34.719Z,10.56
2017-06-01T18:26:03.076Z,10.94
2017-06-01T18:28:31.483Z,11.66
2017-06-01T18:30:59.872Z,10.76
2017-06-01T18:33:28.280Z,12.32
2017-06-01T18:35:56.648Z,11.64
2017-06-01T18:38:25.023Z,13.62
2017-06-01T18:40:53.403Z,11.74
2017-06-01T18:43:21.840Z,11.80
2017-06-01T18:45:50.212Z,11.36
2017-06-01T18:48:18.617Z,10.90
2017-06-01T18:50:46.978Z,13.64
2017-06-01T18:53:15.360Z,11.86
2017-06-01T18:55:44.367Z,11.78
2017-06-01T18:58:12.741Z,10.12
2017-06-01T19:00:41.118Z,12.26
2017-06-01T19:03:09.559Z,16.10
2017-06-01T19:05:37.922Z,15.34
2017-06-01T19:08:06.419Z,16.24
2017-06-01T19:10:34.770Z,12.86
2017-06-01T19:13:03.185Z,13.80
2017-06-01T19:15:31.784Z,11.34
2017-06-01T19:18:00.179Z,15.22
2017-06-01T19:20:28.539Z,11.34
2017-06-01T19:22:56.947Z,14.60
2017-06-01T19:25:25.360Z,13.94
2017-06-01T19:27:53.829Z,15.38
2017-06-01T19:30:22.174Z,12.18
2017-06-01T19:32:50.587Z,16.34
2017-06-01T19:35:18.938Z,19.02
2017-06-01T19:37:47.316Z,13.72
2017-06-01T19:40:15.695Z,22.58
2017-06-01T19:42:44.104Z,14.56
2017-06-01T19:45:12.469Z,14.36
2017-06-01T19:47:40.871Z,10.18
2017-06-01T19:50:08.511Z,14.46
2017-06-01T19:52:38.331Z,12.04
2017-06-01T19:55:06.731Z,15.86
2017-06-01T19:57:35.127Z,16.66
2017-06-01T20:00:03.483Z,14.22
2017-06-01T20:02:31.944Z,15.50
2017-06-01T20:05:00.405Z,14.28
2017-06-01T20:07:30.042Z,16.44
2017-06-01T20:10:00.714Z,19.24
2017-06-01T20:12:29.192Z,14.48
2017-06-01T20:14:57.644Z,17.06
2017-06-01T20:17:26.160Z,18.94
2017-06-01T20:19:54.632Z,18.44
2017-06-01T20:22:23.104Z,14.96
2017-06-01T20:24:51.590Z,16.62
2017-06-01T20:27:20.082Z,17.66
2017-06-01T20:29:47.811Z,20.38
2017-06-01T20:32:16.330Z,22.58
2017-06-01T20:34:44.090Z,17.04
2017-06-01T20:37:12.592Z,14.08
2017-06-01T20:39:41.099Z,15.94
2017-06-01T20:42:09.619Z,16.82
2017-06-01T20:44:38.106Z,15.02
2017-06-01T20:47:06.582Z,14.90
2017-06-01T20:49:35.080Z,17.00
2017-06-01T20:52:03.614Z,17.60
2017-06-01T20:54:32.092Z,18.58
2017-06-01T20:57:00.582Z,17.62
2017-06-01T20:59:29.073Z,16.64
2017-06-01T21:01:57.495Z,16.68
2017-06-01T21:04:25.948Z,17.70
2017-06-01T21:06:54.423Z,23.48
2017-06-01T21:09:22.936Z,20.98
2017-06-01T21:11:51.408Z,27.34
2017-06-01T21:14:19.868Z,24.72
2017-06-01T21:16:48.317Z,20.38
2017-06-01T21:19:16.782Z,18.82
2017-06-01T21:21:45.289Z,27.30
2017-06-01T21:24:13.813Z,19.80
2017-06-01T21:26:42.329Z,21.04
2017-06-01T21:29:10.822Z,21.90
2017-06-01T21:31:39.301Z,19.78
2017-06-01T21:34:07.780Z,21.42
2017-06-01T21:36:36.258Z,21.36
2017-06-01T21:39:04.769Z,24.62
2017-06-01T21:41:33.236Z,28.54
2017-06-01T21:44:01.675Z,20.34
2017-06-01T21:46:30.210Z,22.40
2017-06-01T21:48:58.706Z,23.34
2017-06-01T21:51:27.211Z,24.10
2017-06-01T21:53:55.710Z,24.64
2017-06-01T21:56:24.262Z,24.72
2017-06-01T21:58:52.750Z,21.68
2017-06-01T22:01:21.305Z,25.20
2017-06-01T22:03:49.841Z,28.38
2017-06-01T22:06:19.408Z,28.66
2017-06-01T22:08:47.168Z,19.12
2017-06-01T22:11:18.833Z,20.76
2017-06-01T22:26:47.361Z,22.94
2017-06-01T22:29:15.876Z,20.98
2017-06-01T22:31:44.359Z,24.60
2017-06-01T22:34:12.828Z,26.44
2017-06-01T22:36:41.353Z,28.34
2017-06-01T22:39:09.866Z,23.38
2017-06-01T22:41:39.189Z,24.70
2017-06-01T22:44:07.708Z,23.24
2017-06-01T22:46:36.247Z,29.00
2017-06-01T22:49:04.722Z,23.14
2017-06-01T22:51:33.181Z,27.40
2017-06-01T22:54:01.708Z,24.96
2017-06-01T22:56:30.211Z,25.36
2017-06-01T22:58:58.716Z,23.24
2017-06-01T23:01:27.244Z,22.98
2017-06-01T23:03:55.776Z,23.70
2017-06-01T23:06:24.259Z,22.18
2017-06-01T23:08:52.803Z,24.88
2017-06-01T23:11:21.444Z,21.32
2017-06-01T23:13:50.003Z,26.12
2017-06-01T23:16:18.477Z,32.44
2017-06-01T23:18:47.055Z,22.84
2017-06-01T23:21:15.556Z,22.08
2017-06-01T23:23:44.046Z,21.16
2017-06-01T23:26:12.551Z,27.06
2017-06-01T23:28:41.066Z,22.12
2017-06-01T23:31:08.806Z,31.34
2017-06-01T23:33:37.287Z,29.00
2017-06-01T23:36:05.775Z,25.38
2017-06-01T23:38:34.239Z,27.92
2017-06-01T23:41:02.731Z,24.56
2017-06-01T23:43:31.184Z,23.66
2017-06-01T23:45:59.652Z,24.34
2017-06-01T23:48:28.112Z,23.86
2017-06-01T23:50:56.560Z,21.52
2017-06-01T23:53:25.082Z,23.02
2017-06-01T23:55:53.603Z,24.80
2017-06-01T23:58:22.111Z,24.82
